Aérodrome :
LOGIN :

S'inscrire | Disclaimer

   EN    FR    IT 

 










Légende :    VFR   VFR Marginal   IFR   IFR Intensif   IFR Très Intensif
Visi : 
Plafond : 
>= 8 km
>= 3000ft
5 à 8 km
1000 à 3000 ft
1500m à 5 km
500 à 1000 ft
800 à 1500m
200 à 500 ft
< 800m
< 200 ft
Symboles :   Orages  Brouillard  Fortes neiges  Fortes précipitations  Vent > 20 kt
SIGMETs :   Divers  Orages  Givrage  Turbulence  Onde Orograph.  Cendres Volcan.







- Altitude de l'aérodrome : 74 ft
- Code IATA : NDZ


ETMN - Cuxhaven Nordholz Sea AB

DERNIER METAR :
  • 251420Z 06005KT 9000 VCSH FEW020 16/14 Q1022 BLU+

METARs EXPIRÉS :
  • 251355Z 06008KT 9999 VCSH SCT020 SCT030 16/14 Q1022 BLU+FCST CANCEL
  • 251320Z 07006KT 9999 -SHRA SCT016 SCT030 18/14 Q1022 BLU+BLU+ TEMPO WHT
  • 251253Z 06006KT 9999 SCT016 SCT035 18/14 Q1022 BLU+BLU+ TEMPO WHT
  • 251220Z 08006KT 9999 SCT012 SCT015 BKN035 18/14 Q1023 BLU BLU TEMPO WHT
  • 251210Z 08007KT 9999 FEW012 SCT015 BKN035 18/14 Q1023 BLU BLU TEMPO WHT

TAF TAF ETMN
Valide du 25 à 14h jusqu'au 25 à 23h UTC


251312Z 2514/2523 08008KT 9999 NSW SCT020 SCT050
TEMPO 2514/2523 07012KT 5000 -SHRA SCT010 BKN020TCU
PROB30 2517/2519 04012G25KT 3000 TSRA BKN010 BKN015CB
Pas de NOTAMs connus pour ce terrain.



MET'MAP, la Météo Aéronautique d'un coup d'oeil ! - Copyright ORBIFLY Décembre 2007 - Disclaimer

ORBIFLY MET'MAP TEAM :

Programmation & Développement : Alexandra Zaïnal
Conception & Développement : Baudouin d'Aumeries
Co-Programmation & Développement : Marc-Olivier Méhu
Soutien technique & logistique : Manuel Goepfert

Contact : metmap@orbifly.com




SOURCES & CREDITS :

   NOAA